createdAt,value
2022-10-07T00:00:42.461Z,4.97
2022-10-07T00:02:44.761Z,4.03
2022-10-07T00:04:47.128Z,4.07
2022-10-07T00:06:49.368Z,4.05
2022-10-07T00:08:53.421Z,6.10
2022-10-07T00:10:58.171Z,9.45
2022-10-07T00:13:01.542Z,15.02
2022-10-07T00:15:05.884Z,22.88
2022-10-07T00:17:07.836Z,33.40
2022-10-07T00:19:13.199Z,34.03
2022-10-07T00:21:16.994Z,30.25
2022-10-07T00:23:18.985Z,28.80
2022-10-07T00:25:21.755Z,28.08
2022-10-07T00:27:24.368Z,24.88
2022-10-07T00:29:28.413Z,29.38
2022-10-07T00:31:36.316Z,25.77
2022-10-07T00:33:39.739Z,24.70
2022-10-07T00:35:42.862Z,21.63
2022-10-07T00:37:45.431Z,21.42
2022-10-07T00:39:47.732Z,25.05
2022-10-07T00:41:52.468Z,21.73
2022-10-07T00:43:55.525Z,28.17
2022-10-07T00:46:37.845Z,27.15
2022-10-07T00:48:40.395Z,20.02
2022-10-07T00:50:43.177Z,19.52
2022-10-07T00:52:51.347Z,17.40
2022-10-07T00:54:56.680Z,15.35
2022-10-07T00:56:59.336Z,13.75
2022-10-07T00:59:02.482Z,12.05
2022-10-07T01:01:05.106Z,13.13
2022-10-07T01:03:07.191Z,9.82
2022-10-07T01:05:11.311Z,9.13
2022-10-07T01:07:13.402Z,11.05
2022-10-07T01:09:17.852Z,6.45
2022-10-07T01:11:34.306Z,7.50
2022-10-07T01:13:48.627Z,7.75
2022-10-07T01:16:18.180Z,10.80
2022-10-07T01:18:34.902Z,8.73
2022-10-07T01:20:55.197Z,7.40
2022-10-07T01:23:12.268Z,8.90
2022-10-07T01:25:55.307Z,11.73
2022-10-07T01:28:53.133Z,7.03
2022-10-07T01:31:01.195Z,10.18
2022-10-07T01:33:07.906Z,14.90
2022-10-07T01:35:20.875Z,13.38
2022-10-07T01:37:25.513Z,20.35
2022-10-07T01:39:34.042Z,14.23
2022-10-07T01:41:39.205Z,20.63
2022-10-07T01:43:42.500Z,21.02
2022-10-07T01:45:45.098Z,23.10
2022-10-07T01:47:51.128Z,17.50
2022-10-07T01:49:54.494Z,15.77
2022-10-07T01:52:24.753Z,15.07
2022-10-07T01:54:51.892Z,15.00
2022-10-07T01:57:05.768Z,10.32
2022-10-07T01:59:53.293Z,11.27
2022-10-07T02:02:21.888Z,7.82
2022-10-07T02:05:03.522Z,10.60
2022-10-07T02:07:36.250Z,8.45
2022-10-07T02:09:51.505Z,7.45
2022-10-07T02:12:05.550Z,10.93
2022-10-07T02:14:33.093Z,15.57
2022-10-07T02:16:47.297Z,17.02
2022-10-07T02:18:52.702Z,15.43
2022-10-07T02:20:56.180Z,16.45
2022-10-07T02:23:02.491Z,14.98
2022-10-07T02:25:06.240Z,15.63
2022-10-07T02:27:16.196Z,13.90
2022-10-07T02:29:25.871Z,10.35
2022-10-07T02:31:33.049Z,11.30
2022-10-07T02:33:38.156Z,10.88
2022-10-07T02:35:42.769Z,10.68
2022-10-07T02:37:49.804Z,12.55
2022-10-07T02:39:53.486Z,10.27
2022-10-07T02:42:14.409Z,16.40
2022-10-07T02:44:52.223Z,39.17
2022-10-07T02:47:05.982Z,146.52
2022-10-07T02:49:11.694Z,100.63
2022-10-07T02:51:21.198Z,63.60
2022-10-07T02:53:28.553Z,39.40
2022-10-07T02:55:31.770Z,29.17
2022-10-07T02:57:41.743Z,28.70
2022-10-07T02:59:47.394Z,19.85
2022-10-07T03:01:55.921Z,15.25
2022-10-07T03:03:58.785Z,14.00
2022-10-07T03:06:04.300Z,29.65
2022-10-07T03:08:09.683Z,63.95
2022-10-07T03:10:13.084Z,83.32
2022-10-07T03:12:15.662Z,82.72
2022-10-07T03:14:17.850Z,67.03
2022-10-07T03:16:20.176Z,73.13
2022-10-07T03:18:28.726Z,84.25
2022-10-07T03:20:40.299Z,93.40
2022-10-07T03:22:46.153Z,67.13
2022-10-07T03:24:51.709Z,53.33
2022-10-07T03:26:54.007Z,36.33
2022-10-07T03:28:57.409Z,26.35
2022-10-07T03:31:05.585Z,20.10
2022-10-07T03:33:08.713Z,14.52
2022-10-07T03:35:11.110Z,10.93
2022-10-07T03:37:14.195Z,11.45
2022-10-07T03:39:16.684Z,9.73
2022-10-07T03:41:19.749Z,9.40
2022-10-07T03:43:26.525Z,10.20
2022-10-07T03:45:32.394Z,9.77
2022-10-07T03:47:35.991Z,12.13
2022-10-07T03:49:39.044Z,8.40
2022-10-07T03:51:41.547Z,10.63
2022-10-07T03:53:44.437Z,10.00
2022-10-07T03:55:48.401Z,8.02
2022-10-07T03:57:51.824Z,8.75
2022-10-07T03:59:56.477Z,5.88
2022-10-07T04:01:58.695Z,5.95
2022-10-07T04:04:01.073Z,7.63
2022-10-07T04:06:06.930Z,8.38
2022-10-07T04:08:12.734Z,7.60
2022-10-07T04:10:17.150Z,9.30
2022-10-07T04:12:19.246Z,8.00
2022-10-07T04:14:21.468Z,10.70
2022-10-07T04:16:24.311Z,31.70
2022-10-07T04:18:26.881Z,23.05
2022-10-07T04:20:29.370Z,21.15
2022-10-07T04:22:31.792Z,25.02
2022-10-07T04:24:33.768Z,32.42
2022-10-07T04:26:36.245Z,31.10
2022-10-07T04:28:39.177Z,25.45
2022-10-07T04:30:51.244Z,16.85
2022-10-07T04:32:57.609Z,10.93
2022-10-07T04:34:59.845Z,9.85
2022-10-07T04:37:01.998Z,11.98
2022-10-07T04:39:05.701Z,10.80
2022-10-07T04:41:11.300Z,11.95
2022-10-07T04:43:20.511Z,9.23
2022-10-07T04:45:32.727Z,9.95
2022-10-07T04:47:36.087Z,7.78
2022-10-07T04:49:38.988Z,9.80
2022-10-07T04:51:43.696Z,8.85
2022-10-07T04:53:56.787Z,9.00
2022-10-07T04:56:06.163Z,8.23
2022-10-07T04:58:09.036Z,9.15
2022-10-07T05:00:11.677Z,12.38
2022-10-07T05:02:13.799Z,7.10
2022-10-07T05:04:16.200Z,12.30
2022-10-07T05:06:18.562Z,10.25
2022-10-07T05:08:24.585Z,13.23
2022-10-07T05:10:28.065Z,11.20
2022-10-07T05:12:30.113Z,13.40
2022-10-07T05:14:36.582Z,8.75
2022-10-07T05:16:39.983Z,11.73
2022-10-07T05:18:43.199Z,12.73
2022-10-07T05:20:49.025Z,9.52
2022-10-07T05:22:51.687Z,11.60
2022-10-07T05:24:54.684Z,12.60
2022-10-07T05:26:57.025Z,10.90
2022-10-07T05:28:59.123Z,11.55
2022-10-07T05:31:15.392Z,16.58
2022-10-07T05:33:21.552Z,15.98
2022-10-07T05:35:25.178Z,12.68
2022-10-07T05:37:27.895Z,11.27
2022-10-07T05:39:32.815Z,10.65
2022-10-07T05:41:45.730Z,14.10
2022-10-07T05:43:51.171Z,12.43
2022-10-07T05:46:04.517Z,14.23
2022-10-07T05:48:08.727Z,13.18
2022-10-07T05:50:10.535Z,15.20
2022-10-07T05:52:13.397Z,11.80
2022-10-07T05:54:18.546Z,14.73
2022-10-07T05:56:21.958Z,10.43
2022-10-07T05:58:25.326Z,13.85
2022-10-07T06:00:28.514Z,13.10
2022-10-07T06:02:30.891Z,20.50
2022-10-07T06:04:33.374Z,16.30
2022-10-07T06:06:36.756Z,18.25
2022-10-07T06:08:43.184Z,18.13
2022-10-07T06:11:04.599Z,18.95
2022-10-07T06:13:09.414Z,12.45
2022-10-07T06:15:14.834Z,15.02
2022-10-07T06:17:20.311Z,16.08
2022-10-07T06:19:23.833Z,14.40
2022-10-07T06:21:29.872Z,17.02
2022-10-07T06:23:36.298Z,13.32
2022-10-07T06:25:39.253Z,13.30
2022-10-07T06:27:41.273Z,15.32
2022-10-07T06:29:43.311Z,13.70
2022-10-07T06:31:48.674Z,14.57
2022-10-07T06:33:51.561Z,15.80
2022-10-07T06:35:59.844Z,11.73
2022-10-07T06:38:06.637Z,15.50
2022-10-07T06:40:12.741Z,16.70
2022-10-07T06:42:15.091Z,13.45
2022-10-07T06:44:32.833Z,17.63
2022-10-07T06:46:36.365Z,18.40
2022-10-07T06:48:41.731Z,15.10
2022-10-07T06:50:51.406Z,15.13
2022-10-07T06:52:53.804Z,15.70
2022-10-07T06:54:56.503Z,16.88
2022-10-07T06:56:58.573Z,13.98
2022-10-07T06:59:02.186Z,16.15
2022-10-07T07:01:15.213Z,15.27
2022-10-07T07:03:17.908Z,12.20
2022-10-07T07:05:20.789Z,14.30
2022-10-07T07:07:24.517Z,14.75
2022-10-07T07:09:27.056Z,13.82
2022-10-07T07:11:43.638Z,11.77
2022-10-07T07:13:50.959Z,11.77
2022-10-07T07:16:00.326Z,7.88
2022-10-07T07:18:08.939Z,8.65
2022-10-07T07:20:11.998Z,8.07
2022-10-07T07:22:14.218Z,7.88
2022-10-07T07:24:18.230Z,15.23
2022-10-07T07:26:22.482Z,8.60
2022-10-07T07:28:24.827Z,7.90
2022-10-07T07:30:28.115Z,8.88
2022-10-07T07:32:31.696Z,8.82
2022-10-07T07:34:38.294Z,9.50
2022-10-07T07:36:46.587Z,10.27
2022-10-07T07:38:54.778Z,10.50
2022-10-07T07:40:57.364Z,7.40
2022-10-07T07:42:59.854Z,10.55
2022-10-07T07:45:04.960Z,16.27
2022-10-07T07:47:09.057Z,8.80
2022-10-07T07:49:13.442Z,9.45
2022-10-07T07:51:19.161Z,8.10
2022-10-07T07:53:23.130Z,12.27
2022-10-07T07:55:25.985Z,8.88
2022-10-07T07:57:29.995Z,13.57
2022-10-07T07:59:37.597Z,10.48
2022-10-07T08:01:41.051Z,11.15
2022-10-07T08:03:46.489Z,8.35
2022-10-07T08:05:49.589Z,10.55
2022-10-07T08:07:52.484Z,12.88
2022-10-07T08:09:55.814Z,10.10
2022-10-07T08:11:58.317Z,10.48
2022-10-07T08:14:03.343Z,11.88
2022-10-07T08:16:14.472Z,8.13
2022-10-07T08:18:18.918Z,10.40
2022-10-07T08:20:21.282Z,9.23
2022-10-07T08:22:23.824Z,8.25
2022-10-07T08:24:28.134Z,8.30
2022-10-07T08:26:33.136Z,6.35
2022-10-07T08:28:38.415Z,9.18
2022-10-07T08:30:40.507Z,5.80
2022-10-07T08:32:42.612Z,6.60
2022-10-07T08:34:44.609Z,6.32
2022-10-07T08:36:48.859Z,7.40
2022-10-07T08:38:51.434Z,6.95
2022-10-07T08:40:54.041Z,4.90
2022-10-07T08:42:56.150Z,3.97
2022-10-07T08:44:58.520Z,6.35
2022-10-07T08:47:27.306Z,3.28
2022-10-07T08:49:48.509Z,4.72
2022-10-07T08:52:05.921Z,4.68
2022-10-07T08:54:13.825Z,7.72
2022-10-07T08:56:18.740Z,3.50
2022-10-07T08:58:32.947Z,2.97
2022-10-07T09:00:59.004Z,4.75
2022-10-07T09:03:50.309Z,4.50
2022-10-07T09:05:54.917Z,5.93
2022-10-07T09:08:00.023Z,4.88
2022-10-07T09:10:11.040Z,6.53
2022-10-07T09:12:45.282Z,6.60
2022-10-07T09:14:50.606Z,4.68
2022-10-07T09:16:55.270Z,6.20
2022-10-07T09:19:02.598Z,7.28
2022-10-07T09:21:12.999Z,11.70
2022-10-07T09:23:16.044Z,8.98
2022-10-07T09:25:22.428Z,13.23
2022-10-07T09:27:26.865Z,12.50
2022-10-07T09:29:30.585Z,7.82
2022-10-07T09:31:32.945Z,6.05
2022-10-07T09:33:43.028Z,9.98
2022-10-07T09:36:04.260Z,11.40
2022-10-07T09:38:10.432Z,5.88
2022-10-07T09:40:31.187Z,3.53
2022-10-07T09:42:43.215Z,4.47
2022-10-07T09:44:52.619Z,6.60
2022-10-07T09:46:59.625Z,5.00
2022-10-07T09:49:05.598Z,6.30
2022-10-07T09:51:17.141Z,3.80
2022-10-07T09:53:22.875Z,5.93
2022-10-07T09:55:37.491Z,9.48
2022-10-07T09:57:40.688Z,6.35
2022-10-07T09:59:42.627Z,6.38
2022-10-07T10:01:55.318Z,7.18
2022-10-07T10:03:58.930Z,4.47
2022-10-07T10:06:04.151Z,6.45
2022-10-07T10:08:21.476Z,6.03
2022-10-07T10:10:31.290Z,6.90
2022-10-07T10:12:44.949Z,5.93
2022-10-07T10:14:53.756Z,9.02
2022-10-07T10:16:56.800Z,6.20
2022-10-07T10:19:04.085Z,4.45
2022-10-07T10:21:12.140Z,8.52
2022-10-07T10:23:36.123Z,10.80
2022-10-07T10:26:16.039Z,9.40
2022-10-07T10:28:35.261Z,5.85
2022-10-07T10:30:50.593Z,4.97
2022-10-07T10:33:14.831Z,4.95
2022-10-07T10:35:29.999Z,8.00
2022-10-07T10:37:40.905Z,7.85
2022-10-07T10:40:20.963Z,6.90
2022-10-07T10:42:31.607Z,5.10
2022-10-07T10:45:02.766Z,4.20
2022-10-07T10:47:26.467Z,6.85
2022-10-07T10:49:54.351Z,3.25
2022-10-07T10:52:12.445Z,8.23
2022-10-07T10:54:31.669Z,5.68
2022-10-07T10:56:54.189Z,4.85
2022-10-07T10:59:20.880Z,7.40
2022-10-07T11:01:24.052Z,3.78
2022-10-07T11:03:41.711Z,6.18
2022-10-07T11:05:45.063Z,4.10
2022-10-07T11:07:50.499Z,5.35
2022-10-07T11:09:57.848Z,4.57
2022-10-07T11:12:05.141Z,3.97
2022-10-07T11:14:22.992Z,3.95
2022-10-07T11:16:38.717Z,3.55
2022-10-07T11:19:05.150Z,4.35
2022-10-07T11:21:15.110Z,3.40
2022-10-07T11:23:22.832Z,2.55
2022-10-07T11:25:36.537Z,4.20
2022-10-07T11:27:40.418Z,6.43
2022-10-07T11:29:57.110Z,3.25
2022-10-07T11:32:05.502Z,4.43
2022-10-07T11:34:14.024Z,3.20
2022-10-07T11:36:24.963Z,2.72
2022-10-07T11:38:33.632Z,2.60
2022-10-07T11:40:44.086Z,4.53
2022-10-07T11:42:50.476Z,2.30
2022-10-07T11:45:13.130Z,3.35
2022-10-07T11:47:20.548Z,3.35
2022-10-07T11:49:56.073Z,3.17
2022-10-07T11:52:24.954Z,4.95
2022-10-07T11:54:30.432Z,4.13
2022-10-07T11:56:49.739Z,3.97
2022-10-07T11:59:02.853Z,4.38
2022-10-07T12:01:31.012Z,3.55
2022-10-07T12:03:33.708Z,4.28
2022-10-07T12:05:35.771Z,7.70
2022-10-07T12:07:45.019Z,8.00
2022-10-07T12:09:54.436Z,7.78
2022-10-07T12:11:57.021Z,12.07
2022-10-07T12:14:33.147Z,9.50
2022-10-07T12:16:43.061Z,7.05
2022-10-07T12:19:10.836Z,10.02
2022-10-07T12:21:13.772Z,4.22
2022-10-07T12:23:18.967Z,3.53
2022-10-07T12:25:29.463Z,3.20
2022-10-07T12:27:32.084Z,9.07
2022-10-07T12:29:48.608Z,8.68
2022-10-07T12:31:51.207Z,14.00
2022-10-07T12:34:10.559Z,15.55
2022-10-07T12:36:23.487Z,36.08
2022-10-07T12:38:28.579Z,62.50
2022-10-07T12:40:35.962Z,61.63
2022-10-07T12:42:45.790Z,114.88
2022-10-07T12:44:52.861Z,103.20
2022-10-07T12:47:18.438Z,47.53
2022-10-07T12:49:30.224Z,25.92
2022-10-07T12:51:39.856Z,26.95
2022-10-07T12:53:43.177Z,24.50
2022-10-07T12:55:50.223Z,71.70
2022-10-07T12:57:54.575Z,233.30
2022-10-07T13:00:02.629Z,224.75
2022-10-07T13:02:14.838Z,179.18
2022-10-07T13:04:30.793Z,76.22
2022-10-07T13:06:46.503Z,58.10
2022-10-07T13:09:33.282Z,34.75
2022-10-07T13:12:15.459Z,29.73
2022-10-07T13:14:44.470Z,20.70
2022-10-07T13:17:20.395Z,9.30
2022-10-07T13:19:39.189Z,5.97
2022-10-07T13:21:55.280Z,32.50
2022-10-07T13:23:57.322Z,16.17
2022-10-07T13:26:04.308Z,15.38
2022-10-07T13:28:07.361Z,7.57
2022-10-07T13:30:47.149Z,7.63
2022-10-07T13:32:49.232Z,10.65
2022-10-07T13:34:54.688Z,11.48
2022-10-07T13:36:57.220Z,8.30
2022-10-07T13:39:19.686Z,7.07
2022-10-07T13:41:27.978Z,10.43
2022-10-07T13:43:32.470Z,9.98
2022-10-07T13:45:45.297Z,23.40
2022-10-07T13:47:50.699Z,37.35
2022-10-07T13:49:54.292Z,50.03
2022-10-07T13:51:59.528Z,41.38
2022-10-07T13:54:04.807Z,33.50
2022-10-07T13:56:12.390Z,38.47
2022-10-07T13:58:15.544Z,47.10
2022-10-07T14:00:17.871Z,47.92
2022-10-07T14:02:20.859Z,94.90
2022-10-07T14:04:31.481Z,191.70
2022-10-07T14:06:48.636Z,306.20
2022-10-07T14:08:51.306Z,358.75
2022-10-07T14:10:58.900Z,173.57
2022-10-07T14:13:08.375Z,119.03
2022-10-07T14:15:17.151Z,106.95
2022-10-07T14:17:24.879Z,59.17
2022-10-07T14:19:33.126Z,80.75
2022-10-07T14:21:41.413Z,143.35
2022-10-07T14:23:46.996Z,206.23
2022-10-07T14:25:48.898Z,188.05
2022-10-07T14:27:53.125Z,214.73
2022-10-07T14:29:55.133Z,180.95
2022-10-07T14:32:39.102Z,172.68
2022-10-07T14:35:02.563Z,139.45
2022-10-07T14:37:09.912Z,174.65
2022-10-07T14:39:31.440Z,198.05
2022-10-07T14:41:33.445Z,212.30
2022-10-07T14:43:36.227Z,224.02
2022-10-07T14:45:38.336Z,210.93
2022-10-07T14:47:41.598Z,162.25
2022-10-07T14:49:43.743Z,179.18
2022-10-07T14:51:46.420Z,145.65
2022-10-07T14:53:51.441Z,131.23
2022-10-07T14:55:54.226Z,108.60
2022-10-07T14:57:56.439Z,120.07
2022-10-07T14:59:58.367Z,128.95
2022-10-07T15:02:01.219Z,125.90
2022-10-07T15:04:03.290Z,121.85
2022-10-07T15:06:06.671Z,109.75
2022-10-07T15:08:11.995Z,111.80
2022-10-07T15:10:21.863Z,109.95
2022-10-07T15:12:23.951Z,115.30
2022-10-07T15:14:26.085Z,132.50
2022-10-07T15:16:28.704Z,133.57
2022-10-07T15:18:31.294Z,138.25
2022-10-07T15:20:35.532Z,118.28
2022-10-07T15:22:38.292Z,120.32
2022-10-07T15:24:40.326Z,120.45
2022-10-07T15:26:42.619Z,101.53
2022-10-07T15:28:44.974Z,95.18
2022-10-07T15:30:46.959Z,89.22
2022-10-07T15:32:49.378Z,97.53
2022-10-07T15:34:55.298Z,72.95
2022-10-07T15:36:57.433Z,72.10
2022-10-07T15:39:02.794Z,75.45
2022-10-07T15:41:04.912Z,47.35
2022-10-07T15:43:06.924Z,72.82
2022-10-07T15:45:10.391Z,57.25
2022-10-07T15:47:13.593Z,56.85
2022-10-07T15:49:19.265Z,41.60
2022-10-07T15:51:21.550Z,37.28
2022-10-07T15:53:25.526Z,50.53
2022-10-07T15:55:27.693Z,39.63
2022-10-07T15:57:29.715Z,37.55
2022-10-07T15:59:32.029Z,42.97
2022-10-07T16:01:34.291Z,69.85
2022-10-07T16:03:41.504Z,100.15
2022-10-07T16:05:43.929Z,80.68
2022-10-07T16:07:45.801Z,69.32
2022-10-07T16:09:47.898Z,76.55
2022-10-07T16:11:51.089Z,64.75
2022-10-07T16:13:53.053Z,50.80
2022-10-07T16:15:57.195Z,56.92
2022-10-07T16:17:59.468Z,47.42
2022-10-07T16:20:05.570Z,44.05
2022-10-07T16:22:13.779Z,49.65
2022-10-07T16:24:23.241Z,41.55
2022-10-07T16:26:29.574Z,41.92
2022-10-07T16:28:51.265Z,32.08
2022-10-07T16:30:53.411Z,30.15
2022-10-07T16:32:55.375Z,37.95
2022-10-07T16:34:57.875Z,26.08
2022-10-07T16:36:59.920Z,29.25
2022-10-07T16:39:03.565Z,25.70
2022-10-07T16:41:05.627Z,26.98
2022-10-07T16:43:07.731Z,28.58
2022-10-07T16:45:10.239Z,19.65
2022-10-07T16:47:13.175Z,20.85
2022-10-07T16:49:17.778Z,22.20
2022-10-07T16:51:23.037Z,26.00
2022-10-07T16:53:27.252Z,21.50
2022-10-07T16:55:29.421Z,20.20
2022-10-07T16:57:31.910Z,24.23
2022-10-07T16:59:36.614Z,22.50
2022-10-07T17:01:39.501Z,24.83
2022-10-07T17:03:43.466Z,22.25
2022-10-07T17:05:45.664Z,22.92
2022-10-07T17:07:48.621Z,26.42
2022-10-07T17:09:50.870Z,26.95
2022-10-07T17:11:52.849Z,23.73
2022-10-07T17:14:17.997Z,27.40
2022-10-07T17:16:20.351Z,25.90
2022-10-07T17:18:24.733Z,32.35
2022-10-07T17:20:26.725Z,33.22
2022-10-07T17:22:28.941Z,36.58
2022-10-07T17:24:31.466Z,37.17
2022-10-07T17:26:33.837Z,35.80
2022-10-07T17:28:37.237Z,41.63
2022-10-07T17:30:39.612Z,52.72
2022-10-07T17:32:42.383Z,51.58
2022-10-07T17:34:45.541Z,50.63
2022-10-07T17:36:48.526Z,43.28
2022-10-07T17:38:50.603Z,45.28
2022-10-07T17:40:52.798Z,41.75
2022-10-07T17:42:55.745Z,43.42
2022-10-07T17:44:58.251Z,37.92
2022-10-07T17:47:03.728Z,45.60
2022-10-07T17:49:08.084Z,40.88
2022-10-07T17:51:10.424Z,41.63
2022-10-07T17:53:12.455Z,33.55
2022-10-07T17:55:14.193Z,31.83
2022-10-07T17:57:16.359Z,31.83
2022-10-07T17:59:18.220Z,31.92
2022-10-07T18:01:23.966Z,33.67
2022-10-07T18:03:26.752Z,32.53
2022-10-07T18:05:28.831Z,29.67
2022-10-07T18:07:30.665Z,35.67
2022-10-07T18:09:32.788Z,33.85
2022-10-07T18:11:53.343Z,31.27
2022-10-07T18:14:13.308Z,29.17
2022-10-07T18:16:15.900Z,24.85
2022-10-07T18:18:17.597Z,26.45
2022-10-07T18:20:21.673Z,23.98
2022-10-07T18:22:24.397Z,26.90
2022-10-07T18:24:28.892Z,32.17
2022-10-07T18:26:30.851Z,30.52
2022-10-07T18:28:34.440Z,30.25
2022-10-07T18:30:36.371Z,27.45
2022-10-07T18:32:38.128Z,25.13
2022-10-07T18:34:39.936Z,24.92
2022-10-07T18:36:41.670Z,24.30
2022-10-07T18:38:44.759Z,22.60
2022-10-07T18:40:46.520Z,20.05
2022-10-07T18:42:48.291Z,19.73
2022-10-07T18:44:50.705Z,17.88
2022-10-07T18:46:53.363Z,16.67
2022-10-07T18:48:55.049Z,19.10
2022-10-07T18:50:57.129Z,18.05
2022-10-07T18:53:00.692Z,20.48
2022-10-07T18:55:02.945Z,21.67
2022-10-07T18:57:04.773Z,22.98
2022-10-07T18:59:07.009Z,18.85
2022-10-07T19:01:13.136Z,22.33
2022-10-07T19:03:17.680Z,19.55
2022-10-07T19:05:19.956Z,20.35
2022-10-07T19:07:22.162Z,20.83
2022-10-07T19:09:27.259Z,18.60
2022-10-07T19:11:32.182Z,20.35
2022-10-07T19:13:53.769Z,18.13
2022-10-07T19:16:02.256Z,17.85
2022-10-07T19:18:04.731Z,17.88
2022-10-07T19:20:07.330Z,16.23
2022-10-07T19:22:09.862Z,16.92
2022-10-07T19:24:15.071Z,11.82
2022-10-07T19:26:21.692Z,12.43
2022-10-07T19:28:25.585Z,13.10
2022-10-07T19:30:27.951Z,10.75
2022-10-07T19:32:30.160Z,14.40
2022-10-07T19:34:34.292Z,17.30
2022-10-07T19:36:41.988Z,16.63
2022-10-07T19:38:46.377Z,16.38
2022-10-07T19:40:51.093Z,17.77
2022-10-07T19:42:53.606Z,14.85
2022-10-07T19:44:56.100Z,12.95
2022-10-07T19:46:58.548Z,15.40
2022-10-07T19:49:02.209Z,14.18
2022-10-07T19:51:08.663Z,12.75
2022-10-07T19:53:11.077Z,13.82
2022-10-07T19:55:13.697Z,13.38
2022-10-07T19:57:16.260Z,15.68
2022-10-07T19:59:18.687Z,13.25
2022-10-07T20:01:24.197Z,14.45
2022-10-07T20:03:26.853Z,18.27
2022-10-07T20:05:30.201Z,15.52
2022-10-07T20:07:32.475Z,15.35
2022-10-07T20:09:34.830Z,20.13
2022-10-07T20:11:37.507Z,15.68
2022-10-07T20:13:41.148Z,16.55
2022-10-07T20:15:43.920Z,16.65
2022-10-07T20:17:49.706Z,16.60
2022-10-07T20:19:53.944Z,14.88
2022-10-07T20:21:56.890Z,16.88
2022-10-07T20:23:59.374Z,13.48
2022-10-07T20:26:09.375Z,12.35
2022-10-07T20:28:11.616Z,12.65
2022-10-07T20:30:18.106Z,15.10
2022-10-07T20:32:24.310Z,14.45
2022-10-07T20:34:26.857Z,15.63
2022-10-07T20:36:31.555Z,14.75
2022-10-07T20:38:53.948Z,15.95
2022-10-07T20:41:14.656Z,14.15
2022-10-07T20:43:18.874Z,15.02
2022-10-07T20:45:21.181Z,14.52
2022-10-07T20:47:24.201Z,15.70
2022-10-07T20:49:29.041Z,15.25
2022-10-07T20:51:31.347Z,14.35
2022-10-07T20:53:33.996Z,14.25
2022-10-07T20:55:36.984Z,16.77
2022-10-07T20:57:39.681Z,23.60
2022-10-07T20:59:43.016Z,89.30
2022-10-07T21:01:45.699Z,190.52
2022-10-07T21:03:51.243Z,123.28
2022-10-07T21:05:58.575Z,100.00
2022-10-07T21:08:00.876Z,116.00
2022-10-07T21:10:02.993Z,71.00
2022-10-07T21:12:08.212Z,42.63
2022-10-07T21:14:11.681Z,32.10
2022-10-07T21:16:14.391Z,22.90
2022-10-07T21:18:19.260Z,18.20
2022-10-07T21:20:21.465Z,16.98
2022-10-07T21:22:23.952Z,15.55
2022-10-07T21:24:26.333Z,15.43
2022-10-07T21:26:28.633Z,14.27
2022-10-07T21:28:33.626Z,13.07
2022-10-07T21:30:36.131Z,13.80
2022-10-07T21:32:38.181Z,13.98
2022-10-07T21:34:40.889Z,13.93
2022-10-07T21:36:50.409Z,12.65
2022-10-07T21:38:56.556Z,13.15
2022-10-07T21:41:12.233Z,15.82
2022-10-07T21:43:15.118Z,11.52
2022-10-07T21:45:17.622Z,13.48
2022-10-07T21:47:19.791Z,14.65
2022-10-07T21:49:21.997Z,14.68
2022-10-07T21:51:27.150Z,14.73
2022-10-07T21:53:29.494Z,12.60
2022-10-07T21:55:31.927Z,13.35
2022-10-07T21:57:34.586Z,15.38
2022-10-07T21:59:36.931Z,12.63
2022-10-07T22:01:39.239Z,14.93
2022-10-07T22:03:42.474Z,16.60
2022-10-07T22:05:45.194Z,16.33
2022-10-07T22:08:05.746Z,14.25
2022-10-07T22:10:08.563Z,14.20
2022-10-07T22:12:10.846Z,13.60
2022-10-07T22:14:16.023Z,12.95
2022-10-07T22:16:19.507Z,15.63
2022-10-07T22:18:22.383Z,13.80
2022-10-07T22:20:27.841Z,21.50
2022-10-07T22:22:31.838Z,11.93
2022-10-07T22:24:37.379Z,11.93
2022-10-07T22:26:44.698Z,14.30
2022-10-07T22:28:46.953Z,12.80
2022-10-07T22:30:49.082Z,13.32
2022-10-07T22:32:53.537Z,12.30
2022-10-07T22:35:13.907Z,15.93
2022-10-07T22:37:16.008Z,8.95
2022-10-07T22:39:18.436Z,13.13
2022-10-07T22:41:20.628Z,15.98
2022-10-07T22:43:22.966Z,16.02
2022-10-07T22:45:25.253Z,14.68
2022-10-07T22:47:27.514Z,15.52
2022-10-07T22:49:30.454Z,11.52
2022-10-07T22:51:33.011Z,11.27
2022-10-07T22:53:38.347Z,11.45
2022-10-07T22:55:40.454Z,12.85
2022-10-07T22:57:42.676Z,8.50
2022-10-07T22:59:45.267Z,10.85
2022-10-07T23:01:50.315Z,9.23
2022-10-07T23:03:53.272Z,8.02
2022-10-07T23:05:55.745Z,8.02
2022-10-07T23:08:00.182Z,7.35
2022-10-07T23:10:02.454Z,8.98
2022-10-07T23:12:06.266Z,8.77
2022-10-07T23:14:08.689Z,7.40
2022-10-07T23:16:15.325Z,8.38
2022-10-07T23:18:17.371Z,6.90
2022-10-07T23:20:19.552Z,5.95
2022-10-07T23:22:22.119Z,9.20
2022-10-07T23:24:24.416Z,8.10
2022-10-07T23:26:29.307Z,11.02
2022-10-07T23:28:33.535Z,7.65
2022-10-07T23:30:38.764Z,6.00
2022-10-07T23:32:45.411Z,9.95
2022-10-07T23:34:47.732Z,8.23
2022-10-07T23:36:49.669Z,7.80
2022-10-07T23:39:53.816Z,8.00
2022-10-07T23:41:56.035Z,7.45
2022-10-07T23:44:02.153Z,9.55
2022-10-07T23:46:06.584Z,8.65
2022-10-07T23:48:09.826Z,8.43
2022-10-07T23:50:15.581Z,7.75
2022-10-07T23:52:17.632Z,11.02
2022-10-07T23:54:19.725Z,9.85
2022-10-07T23:56:21.952Z,11.32
2022-10-07T23:58:26.834Z,9.15
